Time;durP1;ratioP1;P1;durP2;ratioP2;P2;SDS_P1;SDS_P2;PMS_P1;PMS_P2;Temp;Humidity;BMP_temperature;BMP_pressure;BME280_temperature;BME280_humidity;BME280_pressure;Samples;Min_cycle;Max_cycle;Signal;HPM_P1;HPM_P2
2024/01/09 00:02:16;;;;;;;3.40;1.70;;;-2.00;77.50;;;;;;5038170;28;20139;-63
2024/01/09 00:04:42;;;;;;;3.70;1.73;;;-2.00;81.80;;;;;;5060163;28;20048;-63
2024/01/09 00:07:08;;;;;;;2.22;1.60;;;-2.00;81.40;;;;;;5061064;28;20063;-63
2024/01/09 00:09:34;;;;;;;3.92;1.83;;;-2.00;80.70;;;;;;5041218;28;20698;-63
2024/01/09 00:12:00;;;;;;;2.88;1.85;;;-2.10;79.10;;;;;;5049012;28;20045;-63
2024/01/09 00:14:25;;;;;;;3.95;1.63;;;-2.10;79.40;;;;;;5046289;28;20082;-63
2024/01/09 00:16:51;;;;;;;3.78;2.00;;;-2.10;80.50;;;;;;5053922;28;20036;-63
2024/01/09 00:19:17;;;;;;;2.58;1.88;;;-2.20;78.80;;;;;;5055395;28;20529;-63
2024/01/09 00:21:46;;;;;;;2.25;1.50;;;-2.20;79.00;;;;;;5030909;28;20124;-63
2024/01/09 00:24:11;;;;;;;7.38;1.83;;;-2.20;77.80;;;;;;5041994;28;20045;-63
2024/01/09 00:26:43;;;;;;;5.35;1.80;;;-2.20;79.40;;;;;;5042035;28;20087;-63
2024/01/09 00:29:10;;;;;;;2.10;1.10;;;-2.20;77.40;;;;;;5041038;28;20103;-63
2024/01/09 00:31:36;;;;;;;3.60;1.60;;;-2.20;75.90;;;;;;5051585;28;20067;-63
2024/01/09 00:34:02;;;;;;;3.05;1.63;;;-2.20;73.30;;;;;;5031711;28;20475;-63
2024/01/09 00:36:27;;;;;;;2.78;2.00;;;-2.20;73.20;;;;;;5024057;28;20040;-63
2024/01/09 00:38:54;;;;;;;6.70;1.67;;;-2.20;72.70;;;;;;5040845;28;20049;-63
2024/01/09 00:41:19;;;;;;;2.92;1.42;;;-2.30;70.80;;;;;;5043685;28;20071;-63
2024/01/09 00:43:45;;;;;;;3.33;1.60;;;-2.30;71.50;;;;;;5007438;28;20510;-63
2024/01/09 00:46:11;;;;;;;7.13;2.20;;;-2.30;70.10;;;;;;5022998;28;20048;-63
2024/01/09 00:48:37;;;;;;;4.70;2.10;;;-2.40;70.70;;;;;;5042060;28;20492;-63
2024/01/09 00:51:04;;;;;;;4.22;1.70;;;-2.40;73.00;;;;;;5040665;28;20049;-63
2024/01/09 00:53:30;;;;;;;1.80;1.55;;;-2.40;76.20;;;;;;5055685;28;20411;-63
2024/01/09 00:55:56;;;;;;;2.97;1.60;;;-2.40;78.90;;;;;;5006396;28;20053;-63
2024/01/09 00:58:21;;;;;;;3.03;1.83;;;-2.40;77.40;;;;;;5041940;28;20041;-63
2024/01/09 01:00:47;;;;;;;5.13;1.95;;;-2.40;75.80;;;;;;5041610;28;20041;-64
2024/01/09 01:03:13;;;;;;;2.42;1.85;;;-2.40;76.40;;;;;;5068088;28;20032;-63
2024/01/09 01:05:39;;;;;;;3.47;1.70;;;-2.40;77.50;;;;;;5063405;28;20043;-63
2024/01/09 01:08:04;;;;;;;4.05;2.35;;;-2.50;77.00;;;;;;5074104;28;20115;-63
2024/01/09 01:10:30;;;;;;;3.92;1.77;;;-2.50;74.50;;;;;;5075652;28;20047;-63
2024/01/09 01:12:56;;;;;;;3.67;2.20;;;-2.50;75.50;;;;;;5053843;28;20045;-63
2024/01/09 01:15:23;;;;;;;2.10;1.42;;;-2.50;74.70;;;;;;5053903;28;20052;-63
2024/01/09 01:17:49;;;;;;;3.42;1.83;;;-2.50;73.20;;;;;;5070157;28;20052;-63
2024/01/09 01:20:15;;;;;;;6.40;2.30;;;-2.50;73.70;;;;;;5074312;28;20051;-63
2024/01/09 01:22:41;;;;;;;2.22;1.75;;;-2.60;77.70;;;;;;5060928;28;20592;-63
2024/01/09 01:25:09;;;;;;;2.70;1.90;;;-2.60;82.20;;;;;;5081059;28;20055;-63
2024/01/09 01:27:34;;;;;;;5.60;1.55;;;-2.60;82.70;;;;;;5082173;28;20055;-62
2024/01/09 01:30:00;;;;;;;2.88;1.85;;;-2.50;81.50;;;;;;5083319;28;20059;-62
2024/01/09 01:32:26;;;;;;;3.05;1.70;;;-2.60;82.50;;;;;;5076326;28;20047;-63
2024/01/09 01:34:51;;;;;;;3.90;2.20;;;-2.60;81.50;;;;;;5048422;28;20048;-63
2024/01/09 01:37:17;;;;;;;2.40;1.70;;;-2.60;78.30;;;;;;5067249;28;20040;-63
2024/01/09 01:39:43;;;;;;;3.33;2.05;;;-2.60;77.30;;;;;;5066678;28;20343;-63
2024/01/09 01:42:09;;;;;;;7.32;2.10;;;-2.60;76.10;;;;;;5075368;28;20040;-63
2024/01/09 01:44:35;;;;;;;1.70;1.60;;;-2.60;76.80;;;;;;5067627;28;20048;-62
2024/01/09 01:47:01;;;;;;;5.38;1.80;;;-2.60;74.60;;;;;;5062832;28;20052;-63
2024/01/09 01:49:27;;;;;;;3.42;1.73;;;-2.60;74.30;;;;;;5085507;28;20044;-63
2024/01/09 01:51:52;;;;;;;4.00;1.80;;;-2.60;72.50;;;;;;5042462;28;20079;-63
2024/01/09 01:54:21;;;;;;;8.43;1.70;;;-2.60;68.80;;;;;;5067071;28;20083;-63
2024/01/09 01:56:47;;;;;;;2.45;1.63;;;-2.60;69.40;;;;;;5083975;28;20450;-63
2024/01/09 01:59:15;;;;;;;3.47;2.10;;;-2.70;69.30;;;;;;5085019;28;20122;-63
2024/01/09 02:01:43;;;;;;;2.63;1.50;;;-2.60;71.10;;;;;;5070785;28;20045;-63
2024/01/09 02:04:10;;;;;;;3.35;1.33;;;-2.70;70.30;;;;;;5082492;28;20047;-63
2024/01/09 02:06:37;;;;;;;3.35;1.65;;;-2.70;68.40;;;;;;5064211;28;21009;-63
2024/01/09 02:09:04;;;;;;;2.15;1.58;;;-2.70;69.90;;;;;;5080105;28;20059;-63
2024/01/09 02:11:30;;;;;;;4.20;2.10;;;-2.70;67.90;;;;;;5066853;28;20166;-63
2024/01/09 02:13:56;;;;;;;3.30;1.95;;;-2.70;69.40;;;;;;5058404;28;20048;-63
2024/01/09 02:16:22;;;;;;;2.28;1.80;;;-2.70;70.70;;;;;;5049748;28;20040;-63
2024/01/09 02:18:48;;;;;;;2.78;1.70;;;-2.70;70.10;;;;;;5057866;28;20044;-63
2024/01/09 02:21:13;;;;;;;2.40;1.73;;;-2.80;69.50;;;;;;5065176;28;20450;-63
2024/01/09 02:23:39;;;;;;;2.75;1.55;;;-2.80;71.10;;;;;;5077257;28;20056;-62
2024/01/09 02:26:06;;;;;;;10.25;1.80;;;-2.80;69.10;;;;;;5061084;28;20060;-63
2024/01/09 02:28:50;;;;;;;4.72;1.67;;;-2.80;67.90;;;;;;5084881;28;20052;-63
2024/01/09 02:31:16;;;;;;;3.92;1.77;;;-2.90;68.30;;;;;;5080867;28;20255;-63
2024/01/09 02:33:43;;;;;;;3.25;1.48;;;-2.90;71.10;;;;;;5070595;28;20471;-63
2024/01/09 02:36:09;;;;;;;3.63;1.75;;;-2.90;67.60;;;;;;5074092;28;20496;-63
2024/01/09 02:38:34;;;;;;;4.85;1.95;;;-2.90;67.70;;;;;;5083080;28;20055;-63
2024/01/09 02:41:01;;;;;;;4.10;2.20;;;-2.90;70.40;;;;;;5083505;28;20131;-63
2024/01/09 02:43:26;;;;;;;3.35;1.70;;;-2.90;71.40;;;;;;5082540;28;20510;-63
2024/01/09 02:45:52;;;;;;;6.30;1.98;;;-2.90;71.10;;;;;;5067548;28;20051;-63
2024/01/09 02:48:18;;;;;;;1.80;1.35;;;-2.90;71.10;;;;;;5069631;28;20036;-63
2024/01/09 02:50:43;;;;;;;6.97;1.63;;;-2.90;68.90;;;;;;5084076;28;20119;-63
2024/01/09 02:53:09;;;;;;;6.03;1.50;;;-2.90;67.90;;;;;;5064898;28;20044;-63
2024/01/09 02:55:35;;;;;;;5.20;1.85;;;-2.90;69.50;;;;;;5076060;28;20043;-63
2024/01/09 02:58:00;;;;;;;2.35;1.40;;;-2.90;69.90;;;;;;5065206;28;20409;-63
2024/01/09 03:00:26;;;;;;;2.28;1.60;;;-3.00;67.60;;;;;;5064379;28;20054;-63
2024/01/09 03:02:52;;;;;;;3.00;1.60;;;-3.00;64.70;;;;;;5071253;28;20043;-62
2024/01/09 03:05:18;;;;;;;3.72;1.95;;;-3.00;63.40;;;;;;5075670;28;20100;-63
2024/01/09 03:07:44;;;;;;;3.17;1.58;;;-3.00;66.40;;;;;;5075071;28;20053;-63
2024/01/09 03:10:10;;;;;;;4.50;1.95;;;-3.00;63.30;;;;;;5054879;28;20070;-63
2024/01/09 03:12:35;;;;;;;2.75;1.90;;;-3.00;61.10;;;;;;5065273;28;20043;-63
2024/01/09 03:15:01;;;;;;;4.38;2.00;;;-3.00;59.90;;;;;;5081896;28;20186;-63
2024/01/09 03:17:27;;;;;;;4.43;2.08;;;-3.00;56.80;;;;;;5051207;28;20052;-63
2024/01/09 03:19:54;;;;;;;4.57;2.30;;;-3.10;54.40;;;;;;5065716;28;20091;-63
2024/01/09 03:22:19;;;;;;;6.45;1.83;;;-3.10;54.20;;;;;;5082160;28;20055;-63
2024/01/09 03:24:45;;;;;;;5.97;1.90;;;-3.10;51.80;;;;;;5083793;28;20040;-63
2024/01/09 03:27:11;;;;;;;3.55;1.92;;;-3.10;51.80;;;;;;5076206;28;20055;-63
2024/01/09 03:29:36;;;;;;;2.55;1.42;;;-3.20;51.70;;;;;;5083378;28;20097;-63
2024/01/09 03:32:03;;;;;;;3.35;1.98;;;-3.10;53.10;;;;;;5062238;28;20141;-63
2024/01/09 03:34:29;;;;;;;1.85;1.67;;;-3.10;52.00;;;;;;5050302;28;20051;-63
2024/01/09 03:36:54;;;;;;;5.45;2.15;;;-3.10;50.00;;;;;;5081449;28;20044;-62
2024/01/09 03:39:20;;;;;;;4.30;1.50;;;-3.10;48.80;;;;;;5081822;28;20074;-63
2024/01/09 03:41:46;;;;;;;2.33;1.85;;;-3.20;48.90;;;;;;5064801;28;20129;-63
2024/01/09 03:44:15;;;;;;;1.98;1.42;;;-3.20;48.30;;;;;;5063301;28;20048;-63
2024/01/09 03:46:41;;;;;;;3.50;1.85;;;-3.20;46.30;;;;;;5079497;28;20149;-63
2024/01/09 03:49:06;;;;;;;2.10;1.48;;;-3.20;43.70;;;;;;5071266;28;20137;-63
2024/01/09 03:51:32;;;;;;;4.43;1.38;;;-3.20;41.60;;;;;;5082382;28;20040;-63
2024/01/09 03:53:58;;;;;;;3.30;1.92;;;-3.20;41.60;;;;;;5082255;28;20047;-63
2024/01/09 03:56:26;;;;;;;2.38;1.98;;;-3.20;42.20;;;;;;5082411;28;20178;-63
2024/01/09 03:58:53;;;;;;;6.68;1.98;;;-3.30;44.20;;;;;;5070226;28;20036;-62
2024/01/09 04:01:19;;;;;;;3.00;2.03;;;-3.20;47.20;;;;;;5072334;28;20457;-63
2024/01/09 04:03:45;;;;;;;3.47;1.92;;;-3.20;44.00;;;;;;5079893;28;20412;-63
2024/01/09 04:06:11;;;;;;;2.13;1.83;;;-3.20;40.60;;;;;;5071295;28;20053;-63
2024/01/09 04:08:37;;;;;;;2.97;1.80;;;-3.20;40.70;;;;;;5048725;28;20052;-63
2024/01/09 04:11:06;;;;;;;3.85;1.92;;;-3.30;38.00;;;;;;5080513;28;20603;-63
2024/01/09 04:13:31;;;;;;;2.80;2.08;;;-3.30;40.20;;;;;;5063452;28;20036;-63
2024/01/09 04:15:57;;;;;;;2.65;1.98;;;-3.30;38.30;;;;;;5082772;28;20130;-63
2024/01/09 04:18:23;;;;;;;4.68;1.73;;;-3.30;38.20;;;;;;5072813;28;20575;-63
2024/01/09 04:20:49;;;;;;;2.35;1.98;;;-3.30;33.70;;;;;;5082731;28;20055;-63
2024/01/09 04:23:14;;;;;;;2.50;2.03;;;-3.40;33.20;;;;;;5062945;28;20079;-63
2024/01/09 04:25:40;;;;;;;4.60;1.73;;;-3.40;31.50;;;;;;5064397;28;20419;-63
2024/01/09 04:28:06;;;;;;;2.03;1.73;;;-3.40;29.50;;;;;;5073437;28;20044;-63
2024/01/09 04:30:32;;;;;;;7.03;1.70;;;-3.40;30.30;;;;;;5072755;28;20114;-63
2024/01/09 04:32:57;;;;;;;6.35;1.80;;;-3.40;28.90;;;;;;5079449;28;20047;-63
2024/01/09 04:35:23;;;;;;;2.22;1.48;;;-3.40;26.20;;;;;;5045716;28;20048;-63
2024/01/09 04:37:49;;;;;;;3.28;1.90;;;-3.30;21.20;;;;;;5082379;28;20080;-63
2024/01/09 04:40:15;;;;;;;6.20;1.50;;;-3.40;19.30;;;;;;5077734;28;20047;-63
2024/01/09 04:42:40;;;;;;;4.55;2.20;;;-3.40;19.60;;;;;;5075938;28;20691;-63
2024/01/09 04:45:06;;;;;;;2.53;2.22;;;-3.40;20.50;;;;;;5078005;28;20040;-63
2024/01/09 04:47:32;;;;;;;3.63;2.05;;;-3.40;19.80;;;;;;5072356;28;20048;-63
2024/01/09 04:49:58;;;;;;;3.35;1.83;;;-3.40;18.70;;;;;;5053042;28;20402;-62
2024/01/09 04:52:23;;;;;;;4.35;1.58;;;-3.50;17.00;;;;;;5055889;28;20048;-63
2024/01/09 04:54:49;;;;;;;5.20;1.80;;;-3.50;20.50;;;;;;5052223;28;20079;-62
2024/01/09 04:57:15;;;;;;;2.72;1.75;;;-3.50;21.10;;;;;;5079747;28;20123;-62
2024/01/09 04:59:42;;;;;;;4.63;2.40;;;-3.50;17.80;;;;;;5066637;28;20497;-63
2024/01/09 05:02:08;;;;;;;5.00;2.20;;;-3.50;18.60;;;;;;5049837;28;20798;-63
2024/01/09 05:04:34;;;;;;;2.65;1.85;;;-3.50;18.70;;;;;;5076392;28;20063;-62
2024/01/09 05:07:00;;;;;;;3.22;2.25;;;-3.40;17.20;;;;;;5083921;28;20413;-63
2024/01/09 05:09:27;;;;;;;5.20;2.28;;;-3.40;14.00;;;;;;5074367;28;20044;-63
2024/01/09 05:11:53;;;;;;;2.78;2.10;;;-3.40;14.80;;;;;;5064481;28;20045;-63
2024/01/09 05:14:18;;;;;;;3.25;2.45;;;-3.40;15.40;;;;;;5063243;28;20048;-63
2024/01/09 05:16:44;;;;;;;2.10;1.70;;;-3.50;16.50;;;;;;5082767;28;20044;-63
2024/01/09 05:19:10;;;;;;;3.22;1.42;;;-3.50;14.70;;;;;;5065048;28;20394;-63
2024/01/09 05:21:35;;;;;;;2.42;2.05;;;-3.50;17.20;;;;;;5085835;28;20494;-62
2024/01/09 05:24:01;;;;;;;2.53;1.58;;;-3.50;17.50;;;;;;5079580;28;20417;-63
2024/01/09 05:26:27;;;;;;;4.10;2.35;;;-3.50;16.60;;;;;;5067346;28;20071;-62
2024/01/09 05:28:52;;;;;;;4.78;2.47;;;-3.50;18.00;;;;;;5058861;28;20044;-63
2024/01/09 05:31:19;;;;;;;3.85;2.25;;;-3.50;22.00;;;;;;5079255;28;20414;-62
2024/01/09 05:33:44;;;;;;;5.57;2.25;;;-3.50;24.80;;;;;;5075352;28;20044;-63
2024/01/09 05:36:10;;;;;;;4.38;2.33;;;-3.50;26.30;;;;;;5012260;28;20056;-63
2024/01/09 05:38:36;;;;;;;2.85;1.85;;;-3.50;24.60;;;;;;5085799;28;20570;-63
2024/01/09 05:41:02;;;;;;;3.95;2.35;;;-3.60;20.10;;;;;;5071789;28;20491;-63
2024/01/09 05:43:27;;;;;;;3.38;2.30;;;-3.60;17.20;;;;;;5076910;28;20040;-63
2024/01/09 05:45:53;;;;;;;3.08;2.40;;;-3.60;17.50;;;;;;5064158;28;20059;-62
2024/01/09 05:48:19;;;;;;;3.38;2.08;;;-3.60;16.80;;;;;;5046443;28;20475;-63
2024/01/09 05:50:44;;;;;;;3.80;2.10;;;-3.60;15.90;;;;;;5065095;28;20094;-63
2024/01/09 05:53:10;;;;;;;2.60;1.98;;;-3.60;11.90;;;;;;5063883;28;20045;-63
2024/01/09 05:55:36;;;;;;;3.42;2.17;;;-3.70;15.60;;;;;;5045924;28;20135;-63
2024/01/09 05:58:02;;;;;;;4.38;2.10;;;-3.70;14.30;;;;;;5063592;28;20515;-63
2024/01/09 06:00:27;;;;;;;2.13;1.85;;;-3.60;18.90;;;;;;5046086;28;20048;-63
2024/01/09 06:02:53;;;;;;;3.05;2.42;;;-3.60;18.30;;;;;;5059926;28;20083;-63
2024/01/09 06:05:19;;;;;;;3.58;2.08;;;-3.60;16.80;;;;;;5045139;28;20044;-63
2024/01/09 06:07:46;;;;;;;3.75;2.20;;;-3.60;13.90;;;;;;5073615;28;20058;-63
2024/01/09 06:10:11;;;;;;;2.90;1.90;;;-3.60;16.20;;;;;;5078169;28;20470;-63
2024/01/09 06:12:37;;;;;;;3.40;2.10;;;-3.60;12.60;;;;;;5084825;28;20393;-63
2024/01/09 06:15:03;;;;;;;2.92;2.40;;;-3.70;14.20;;;;;;5076133;28;20040;-63
2024/01/09 06:17:29;;;;;;;4.68;2.03;;;-3.60;13.60;;;;;;5049703;28;20044;-63
2024/01/09 06:19:55;;;;;;;5.72;2.58;;;-3.70;13.80;;;;;;5083259;28;20379;-63
2024/01/09 06:22:21;;;;;;;5.05;1.88;;;-3.60;16.40;;;;;;5070203;28;20060;-63
2024/01/09 06:24:46;;;;;;;4.40;2.08;;;-3.70;9.50;;;;;;5083050;28;20113;-63
2024/01/09 06:27:12;;;;;;;5.45;2.55;;;-3.70;10.10;;;;;;5084496;28;20036;-63
2024/01/09 06:29:38;;;;;;;2.80;2.30;;;-3.70;9.40;;;;;;5084000;28;20058;-63
2024/01/09 06:32:04;;;;;;;7.35;2.92;;;-3.70;9.40;;;;;;5080859;28;20040;-63
2024/01/09 06:34:29;;;;;;;3.03;2.35;;;-3.70;7.80;;;;;;5080018;28;20504;-63
2024/01/09 06:36:55;;;;;;;6.28;2.80;;;-3.70;9.90;;;;;;5064747;28;20090;-63
2024/01/09 06:39:21;;;;;;;3.35;2.40;;;-3.70;8.90;;;;;;5065573;28;20051;-63
2024/01/09 06:41:47;;;;;;;4.38;2.80;;;-3.70;9.10;;;;;;5083079;28;20040;-63
2024/01/09 06:44:12;;;;;;;9.27;2.53;;;-3.70;7.40;;;;;;5050373;28;20048;-63
2024/01/09 06:46:38;;;;;;;3.58;2.35;;;-3.70;9.00;;;;;;5078011;28;20132;-63
2024/01/09 06:49:04;;;;;;;3.88;2.67;;;-3.70;9.40;;;;;;5073073;28;20505;-63
2024/01/09 06:51:31;;;;;;;6.90;2.08;;;-3.80;7.60;;;;;;5065395;28;20078;-63
2024/01/09 06:53:57;;;;;;;2.88;2.05;;;-3.80;6.80;;;;;;5075301;28;20044;-63
2024/01/09 06:56:23;;;;;;;5.72;2.40;;;-3.80;9.30;;;;;;5059817;28;20055;-63
2024/01/09 06:58:48;;;;;;;4.82;2.50;;;-3.80;10.80;;;;;;5082650;28;20123;-63
2024/01/09 07:01:14;;;;;;;3.75;2.58;;;-3.80;15.80;;;;;;5076880;28;20361;-63
2024/01/09 07:03:40;;;;;;;7.10;2.63;;;-3.80;18.60;;;;;;5059850;28;20050;-62
2024/01/09 07:06:05;;;;;;;4.53;2.33;;;-3.80;20.20;;;;;;5054679;28;20044;-63
2024/01/09 07:08:31;;;;;;;6.38;2.97;;;-3.70;18.90;;;;;;5065088;28;20047;-63
2024/01/09 07:10:57;;;;;;;3.10;2.38;;;-3.80;18.20;;;;;;5082455;28;20036;-63
2024/01/09 07:13:23;;;;;;;2.50;1.85;;;-3.80;18.20;;;;;;5068847;28;20055;-63
2024/01/09 07:15:49;;;;;;;6.57;2.85;;;-3.80;18.50;;;;;;5060252;28;20137;-63
2024/01/09 07:18:15;;;;;;;6.10;2.50;;;-3.80;20.90;;;;;;5072135;28;20044;-63
2024/01/09 07:20:43;;;;;;;5.63;2.55;;;-3.80;24.70;;;;;;5081798;28;20476;-63
2024/01/09 07:23:08;;;;;;;4.57;2.88;;;-3.80;26.60;;;;;;5065770;28;20509;-63
2024/01/09 07:25:34;;;;;;;5.90;2.35;;;-3.80;28.90;;;;;;5050222;28;20044;-63
2024/01/09 07:28:00;;;;;;;3.88;2.50;;;-3.80;26.70;;;;;;5055135;28;20036;-63
2024/01/09 07:30:26;;;;;;;3.80;2.42;;;-3.70;25.40;;;;;;5058804;28;20060;-63
2024/01/09 07:32:52;;;;;;;6.55;2.22;;;-3.70;24.50;;;;;;5071950;28;20525;-63
2024/01/09 07:35:17;;;;;;;4.35;2.58;;;-3.70;26.00;;;;;;5061418;28;20522;-62
2024/01/09 07:37:43;;;;;;;3.58;2.35;;;-3.70;22.60;;;;;;5060904;28;20388;-63
2024/01/09 07:40:09;;;;;;;4.55;2.83;;;-3.70;22.00;;;;;;5063195;28;20044;-63
2024/01/09 07:42:35;;;;;;;7.18;2.70;;;-3.70;20.70;;;;;;5043371;28;20044;-63
2024/01/09 07:45:03;;;;;;;4.40;2.58;;;-3.70;17.60;;;;;;5060567;28;20048;-63
2024/01/09 07:47:29;;;;;;;6.03;3.30;;;-3.70;17.30;;;;;;5060233;28;20668;-63
2024/01/09 07:49:54;;;;;;;3.80;2.70;;;-3.70;18.60;;;;;;5058704;28;20068;-63
2024/01/09 07:52:21;;;;;;;2.97;1.90;;;-3.70;17.50;;;;;;5044320;28;20128;-63
2024/01/09 07:54:47;;;;;;;5.10;2.30;;;-3.70;16.50;;;;;;5059006;28;20044;-63
2024/01/09 07:57:13;;;;;;;3.70;2.45;;;-3.70;14.00;;;;;;5062270;28;20500;-63
2024/01/09 07:59:42;;;;;;;3.88;2.55;;;-3.70;13.80;;;;;;5059577;28;20044;-63
2024/01/09 08:02:07;;;;;;;3.67;2.35;;;-3.60;12.40;;;;;;5062046;28;20047;-63
2024/01/09 08:04:33;;;;;;;4.35;2.55;;;-3.60;12.50;;;;;;5042848;28;20052;-63
2024/01/09 08:06:59;;;;;;;3.97;2.28;;;-3.60;10.30;;;;;;5057314;28;20053;-63
2024/01/09 08:09:24;;;;;;;3.13;1.88;;;-3.60;11.40;;;;;;5066423;28;20088;-63
2024/01/09 08:11:50;;;;;;;4.07;2.30;;;-3.60;9.00;;;;;;5044689;28;20381;-63
2024/01/09 08:14:16;;;;;;;3.83;2.80;;;-3.50;7.70;;;;;;5062711;28;20044;-63
2024/01/09 08:16:42;;;;;;;5.43;2.75;;;-3.50;8.50;;;;;;5057562;28;20143;-63
2024/01/09 08:19:08;;;;;;;2.78;2.15;;;-3.40;8.40;;;;;;5041242;28;20048;-63
2024/01/09 08:21:37;;;;;;;5.40;2.60;;;-3.40;6.10;;;;;;5039532;28;20056;-63
2024/01/09 08:24:03;;;;;;;7.22;2.80;;;-3.40;7.20;;;;;;5040376;28;20084;-63
2024/01/09 08:26:29;;;;;;;3.42;2.42;;;-3.30;3.90;;;;;;5043060;28;20497;-63
2024/01/09 08:28:56;;;;;;;2.42;2.00;;;-3.30;3.20;;;;;;5057521;28;20517;-63
2024/01/09 08:31:21;;;;;;;3.63;2.15;;;-3.30;1.00;;;;;;5038999;28;20135;-63
2024/01/09 08:33:47;;;;;;;3.75;2.35;;;-3.20;1.00;;;;;;5053709;28;20059;-63
2024/01/09 08:36:14;;;;;;;4.25;2.40;;;-3.20;1.00;;;;;;5043654;28;20054;-63
2024/01/09 08:38:40;;;;;;;2.35;2.03;;;-3.20;1.00;;;;;;5061455;28;20051;-63
2024/01/09 08:41:06;;;;;;;4.25;2.47;;;-3.10;1.00;;;;;;5043950;28;20048;-63
2024/01/09 08:43:31;;;;;;;4.65;2.10;;;-3.10;1.00;;;;;;5042814;28;20049;-63
2024/01/09 08:45:57;;;;;;;3.67;2.13;;;-3.00;1.00;;;;;;5043962;28;20543;-63
2024/01/09 08:48:23;;;;;;;5.15;2.40;;;-3.00;1.00;;;;;;5064490;28;20556;-63
2024/01/09 08:50:49;;;;;;;5.07;2.88;;;-2.90;1.00;;;;;;5061944;28;20036;-63
2024/01/09 08:53:15;;;;;;;6.20;2.60;;;-2.90;1.00;;;;;;5053214;28;20045;-63
2024/01/09 08:55:42;;;;;;;4.35;2.33;;;-2.80;1.00;;;;;;5060207;28;20465;-63
2024/01/09 08:58:08;;;;;;;2.88;2.13;;;-2.80;1.00;;;;;;5040899;28;20036;-63
2024/01/09 09:00:34;;;;;;;3.45;2.50;;;-2.80;1.00;;;;;;5065448;28;20048;-63
2024/01/09 09:03:00;;;;;;;3.92;2.50;;;-2.70;1.00;;;;;;5063065;28;20533;-63
2024/01/09 09:05:26;;;;;;;6.03;2.50;;;-2.70;1.00;;;;;;5064265;28;20076;-63
2024/01/09 09:07:51;;;;;;;2.33;1.88;;;-2.60;1.00;;;;;;5044024;28;20087;-63
2024/01/09 09:10:17;;;;;;;4.93;2.50;;;-2.60;1.00;;;;;;5055153;28;20064;-63
2024/01/09 09:12:43;;;;;;;5.60;2.55;;;-2.50;1.00;;;;;;5027951;28;20203;-63
2024/01/09 09:15:09;;;;;;;3.17;2.25;;;-2.50;1.00;;;;;;5069130;28;20094;-63
2024/01/09 09:17:35;;;;;;;4.95;2.88;;;-2.50;1.00;;;;;;5067483;28;20045;-63
2024/01/09 09:20:01;;;;;;;5.15;2.63;;;-2.40;1.00;;;;;;5065298;28;20382;-63
2024/01/09 09:22:28;;;;;;;6.65;2.50;;;-2.40;1.00;;;;;;5026634;28;20494;-63
2024/01/09 09:24:55;;;;;;;3.40;2.38;;;-2.30;1.00;;;;;;5056387;28;20041;-63
2024/01/09 09:27:21;;;;;;;4.97;2.63;;;-2.30;1.00;;;;;;5060277;28;20056;-63
2024/01/09 09:29:47;;;;;;;3.35;2.70;;;-2.30;1.00;;;;;;5040633;28;20036;-63
2024/01/09 09:32:12;;;;;;;3.40;2.63;;;-2.20;1.00;;;;;;5060459;28;20055;-64
2024/01/09 09:34:41;;;;;;;3.35;2.78;;;-2.20;1.00;;;;;;5045750;28;20066;-63
2024/01/09 09:37:08;;;;;;;9.02;3.58;;;-2.20;1.00;;;;;;5043639;28;20053;-63
2024/01/09 09:39:34;;;;;;;4.15;2.45;;;-2.10;1.00;;;;;;5064107;28;20033;-63
2024/01/09 09:42:00;;;;;;;3.63;2.33;;;-2.10;1.00;;;;;;5063568;28;20048;-63
2024/01/09 09:44:26;;;;;;;3.55;2.22;;;-2.10;1.00;;;;;;5065731;28;20127;-63
2024/01/09 09:46:53;;;;;;;4.38;2.58;;;-2.00;1.00;;;;;;5062855;28;20113;-63
2024/01/09 09:49:25;;;;;;;4.10;2.63;;;-1.90;1.00;;;;;;5063966;28;20041;-63
2024/01/09 09:51:53;;;;;;;5.78;2.05;;;-1.90;1.00;;;;;;5060051;28;20091;-63
2024/01/09 09:54:19;;;;;;;8.57;2.40;;;-1.90;1.00;;;;;;5064951;28;20389;-62
2024/01/09 09:56:45;;;;;;;3.42;2.15;;;-1.90;1.00;;;;;;5059875;28;20071;-63
2024/01/09 09:59:12;;;;;;;3.17;2.35;;;-1.90;1.00;;;;;;5064361;28;20044;-62
2024/01/09 10:01:40;;;;;;;3.42;2.53;;;-1.90;1.00;;;;;;5064128;28;20048;-63
2024/01/09 10:04:17;;;;;;;5.72;1.83;;;-1.80;1.00;;;;;;5062728;28;20079;-63
2024/01/09 10:06:46;;;;;;;5.43;2.13;;;-1.80;1.00;;;;;;5061011;28;20044;-63
2024/01/09 10:09:14;;;;;;;2.80;2.30;;;-1.80;1.00;;;;;;5048650;28;20040;-63
2024/01/09 10:11:40;;;;;;;4.43;2.60;;;-1.70;1.00;;;;;;5078368;28;20053;-63
2024/01/09 10:14:09;;;;;;;3.45;2.30;;;-1.70;1.00;;;;;;5067684;28;20246;-62
2024/01/09 10:16:53;;;;;;;3.25;2.25;;;-1.70;1.00;;;;;;5062597;28;20050;-63
2024/01/09 10:19:21;;;;;;;3.38;2.28;;;-1.60;1.00;;;;;;5066373;28;20070;-63
2024/01/09 10:21:47;;;;;;;3.47;2.53;;;-1.60;1.00;;;;;;5059304;28;20040;-63
2024/01/09 10:24:15;;;;;;;2.97;2.10;;;-1.50;1.00;;;;;;5046098;28;20078;-63
2024/01/09 10:26:40;;;;;;;3.58;2.22;;;-1.50;1.00;;;;;;5044775;28;20070;-63
2024/01/09 10:29:09;;;;;;;3.70;2.70;;;-1.50;1.00;;;;;;5060202;28;20108;-63
2024/01/09 10:31:34;;;;;;;5.63;2.35;;;-1.50;1.00;;;;;;5056520;28;20058;-62
2024/01/09 10:34:00;;;;;;;4.80;2.65;;;-1.50;1.00;;;;;;5062937;28;20044;-63
2024/01/09 10:36:27;;;;;;;4.32;2.85;;;-1.40;1.00;;;;;;5063887;28;20048;-63
2024/01/09 10:39:04;;;;;;;4.28;2.33;;;-1.40;1.00;;;;;;5038935;28;20481;-63
2024/01/09 10:41:31;;;;;;;3.38;2.17;;;-1.40;1.00;;;;;;5063760;28;20386;-63
2024/01/09 10:43:59;;;;;;;4.18;2.75;;;-1.30;1.00;;;;;;5040498;28;20048;-63
2024/01/09 10:46:26;;;;;;;2.63;2.08;;;-1.30;1.00;;;;;;5063487;28;20414;-63
2024/01/09 10:48:53;;;;;;;2.55;2.35;;;-1.30;1.00;;;;;;5058023;28;20037;-63
2024/01/09 10:51:22;;;;;;;2.58;2.08;;;-1.20;1.00;;;;;;5062067;28;20035;-63
2024/01/09 10:53:50;;;;;;;4.22;2.78;;;-1.20;1.00;;;;;;5045058;28;20048;-63
2024/01/09 10:56:17;;;;;;;5.53;2.20;;;-1.20;1.00;;;;;;5044041;28;20051;-63
2024/01/09 10:58:46;;;;;;;5.65;2.75;;;-1.20;1.00;;;;;;5027730;28;20049;-63
2024/01/09 11:01:13;;;;;;;4.25;1.92;;;-1.10;1.00;;;;;;5057865;28;20077;-63
2024/01/09 11:03:40;;;;;;;4.90;2.95;;;-1.10;1.00;;;;;;5060055;28;20371;-63
2024/01/09 11:06:07;;;;;;;3.00;2.70;;;-1.00;1.00;;;;;;5022184;28;20052;-62
2024/01/09 11:08:37;;;;;;;2.97;2.78;;;-1.00;1.00;;;;;;5059155;28;20052;-63
2024/01/09 11:11:13;;;;;;;8.95;2.95;;;-0.90;1.00;;;;;;5073522;28;20036;-63
2024/01/09 11:13:43;;;;;;;4.38;2.70;;;-0.80;1.00;;;;;;5038625;28;20124;-63
2024/01/09 11:16:10;;;;;;;2.78;2.35;;;-0.90;1.00;;;;;;5062278;28;20036;-63
2024/01/09 11:18:37;;;;;;;3.05;2.63;;;-0.80;1.00;;;;;;5051960;28;20048;-63
2024/01/09 11:21:06;;;;;;;6.15;2.63;;;-0.80;1.00;;;;;;5054730;28;20051;-63
2024/01/09 11:23:44;;;;;;;5.15;2.63;;;-0.80;1.00;;;;;;5054674;28;20123;-63
2024/01/09 11:26:12;;;;;;;3.63;2.70;;;-0.70;1.00;;;;;;5053493;28;20138;-63
2024/01/09 11:28:41;;;;;;;4.25;2.50;;;-0.70;1.00;;;;;;5053546;28;20051;-63
2024/01/09 11:31:07;;;;;;;3.50;2.25;;;-0.70;1.00;;;;;;5034321;28;20124;-63
2024/01/09 11:33:33;;;;;;;4.30;2.38;;;-0.70;1.00;;;;;;5053269;28;20052;-63
2024/01/09 11:36:06;;;;;;;6.90;2.83;;;-0.70;1.00;;;;;;5054277;28;20047;-63
2024/01/09 11:38:33;;;;;;;4.22;2.33;;;-0.70;1.00;;;;;;5042529;28;20056;-63
2024/01/09 11:41:06;;;;;;;5.65;3.10;;;-0.60;1.00;;;;;;5060248;28;20131;-63
2024/01/09 11:44:06;;;;;;;2.45;2.25;;;-0.60;1.00;;;;;;5041973;28;20044;-63
2024/01/09 11:46:34;;;;;;;4.57;2.40;;;-0.70;1.00;;;;;;5062612;28;20049;-63
2024/01/09 11:49:00;;;;;;;3.35;2.50;;;-0.60;1.00;;;;;;5061074;28;20139;-63
2024/01/09 11:51:26;;;;;;;3.70;1.85;;;-0.60;1.00;;;;;;5062393;28;20463;-63
2024/01/09 11:53:52;;;;;;;4.50;2.53;;;-0.60;1.00;;;;;;5060814;28;20083;-63
2024/01/09 11:56:22;;;;;;;9.70;2.53;;;-0.50;1.00;;;;;;5035086;28;20124;-64
2024/01/09 11:58:52;;;;;;;4.28;2.47;;;-0.50;1.00;;;;;;5039368;28;20051;-64
2024/01/09 12:01:21;;;;;;;2.08;1.88;;;-0.50;1.00;;;;;;5060477;28;20036;-63
2024/01/09 12:03:54;;;;;;;4.28;2.53;;;-0.50;1.00;;;;;;5055393;28;20044;-63
2024/01/09 12:06:22;;;;;;;5.07;2.10;;;-0.50;1.00;;;;;;5026216;28;20327;-63
2024/01/09 12:08:48;;;;;;;2.72;2.33;;;-0.40;1.00;;;;;;5061350;28;20090;-63
2024/01/09 12:11:14;;;;;;;2.35;1.98;;;-0.40;1.00;;;;;;5060097;28;20120;-63
2024/01/09 12:13:39;;;;;;;5.25;2.55;;;-0.40;1.00;;;;;;5045876;28;20098;-63
2024/01/09 12:16:19;;;;;;;3.78;2.40;;;-0.30;1.00;;;;;;5068855;28;20051;-63
2024/01/09 12:18:47;;;;;;;2.95;1.80;;;-0.30;1.00;;;;;;5034817;28;20080;-63
2024/01/09 12:21:13;;;;;;;2.00;1.90;;;-0.20;1.00;;;;;;5069256;28;20043;-63
2024/01/09 12:23:39;;;;;;;2.33;1.85;;;-0.20;1.00;;;;;;5034260;28;20073;-63
2024/01/09 12:26:05;;;;;;;2.03;1.92;;;-0.20;1.00;;;;;;5073389;28;20052;-63
2024/01/09 12:28:31;;;;;;;2.50;2.28;;;-0.10;1.00;;;;;;5072427;28;20064;-63
2024/01/09 12:31:01;;;;;;;4.28;2.33;;;-0.10;1.00;;;;;;5073180;28;20052;-63
2024/01/09 12:33:29;;;;;;;1.90;1.80;;;-0.10;1.00;;;;;;5054086;28;20048;-63
2024/01/09 12:35:56;;;;;;;3.80;2.25;;;-0.10;1.00;;;;;;5054191;28;20498;-63
2024/01/09 12:38:22;;;;;;;3.55;1.95;;;0.00;1.00;;;;;;5050837;28;20052;-62
2024/01/09 12:41:04;;;;;;;3.35;2.08;;;0.00;1.00;;;;;;5073326;28;20085;-63
2024/01/09 12:43:31;;;;;;;2.00;1.65;;;0.00;1.00;;;;;;5040783;28;20162;-63
2024/01/09 12:46:00;;;;;;;2.28;1.75;;;0.10;1.00;;;;;;5056477;28;20522;-63
2024/01/09 12:48:26;;;;;;;3.45;1.80;;;0.10;1.00;;;;;;5066677;28;20471;-63